Time;durP1;ratioP1;P1;durP2;ratioP2;P2;SDS_P1;SDS_P2;PMS_P1;PMS_P2;Temp;Humidity;BMP_temperature;BMP_pressure;BME280_temperature;BME280_humidity;BME280_pressure;Samples;Min_cycle;Max_cycle;Signal;HPM_P1;HPM_P2
2023/03/24 00:01:22;;;;;;;9.00;5.80;;;13.30;99.90;;;;;;5054367;28;20185;-42
2023/03/24 00:03:50;;;;;;;6.93;5.33;;;13.30;99.90;;;;;;5072057;28;20177;-42
2023/03/24 00:06:17;;;;;;;8.13;5.53;;;13.30;99.90;;;;;;5037743;28;20177;-40
2023/03/24 00:08:46;;;;;;;6.50;4.50;;;13.30;99.90;;;;;;5072425;28;20169;-42
2023/03/24 00:11:13;;;;;;;3.57;3.20;;;13.30;99.90;;;;;;5068222;28;20244;-41
2023/03/24 00:13:40;;;;;;;5.10;3.30;;;13.20;99.90;;;;;;5073248;28;20177;-42
2023/03/24 00:16:18;;;;;;;4.80;3.73;;;13.10;99.90;;;;;;5086769;28;20188;-42
2023/03/24 00:18:49;;;;;;;4.30;3.47;;;13.00;99.90;;;;;;5057472;28;20180;-42
2023/03/24 00:21:15;;;;;;;4.97;3.40;;;13.00;99.90;;;;;;5042924;28;20188;-41
2023/03/24 00:23:41;;;;;;;5.07;3.57;;;12.90;99.90;;;;;;5034370;28;20178;-42
2023/03/24 00:26:14;;;;;;;3.20;2.90;;;12.90;99.90;;;;;;5082214;28;20177;-42
2023/03/24 00:28:41;;;;;;;3.43;2.80;;;13.00;99.90;;;;;;5082171;28;20176;-42
2023/03/24 00:31:08;;;;;;;2.63;2.40;;;13.00;99.90;;;;;;5036605;28;20177;-40
2023/03/24 00:33:34;;;;;;;3.00;2.23;;;13.00;99.90;;;;;;5069792;28;20224;-41
2023/03/24 00:36:05;;;;;;;4.23;2.27;;;13.10;99.90;;;;;;5055580;28;20180;-42
2023/03/24 00:38:35;;;;;;;2.87;2.20;;;13.20;99.90;;;;;;5072759;28;20179;-40
2023/03/24 00:41:01;;;;;;;5.93;2.50;;;13.20;99.90;;;;;;5089433;28;20209;-42
2023/03/24 00:43:31;;;;;;;3.77;2.60;;;13.20;99.90;;;;;;5089312;28;20269;-42
2023/03/24 00:46:02;;;;;;;2.40;1.97;;;13.30;99.90;;;;;;5069730;28;20184;-40
2023/03/24 00:48:29;;;;;;;2.60;2.13;;;13.40;99.90;;;;;;5070965;28;20234;-41
2023/03/24 00:50:55;;;;;;;2.20;2.00;;;13.40;99.90;;;;;;5069414;28;20311;-42
2023/03/24 00:53:24;;;;;;;3.03;2.07;;;13.40;99.90;;;;;;5036726;28;20192;-41
2023/03/24 00:55:50;;;;;;;2.40;2.00;;;13.30;99.90;;;;;;5073271;28;20206;-42
2023/03/24 00:58:18;;;;;;;2.43;2.03;;;13.30;99.90;;;;;;5091302;28;20177;-41
2023/03/24 01:00:50;;;;;;;3.20;2.33;;;13.30;99.90;;;;;;5073745;28;20223;-41
2023/03/24 01:03:16;;;;;;;4.00;2.60;;;13.20;99.90;;;;;;5083733;28;20196;-42
2023/03/24 01:05:46;;;;;;;2.93;2.57;;;13.10;99.90;;;;;;5092316;28;20176;-42
2023/03/24 01:08:14;;;;;;;3.37;3.07;;;13.00;99.90;;;;;;5050727;28;20646;-42
2023/03/24 01:10:52;;;;;;;4.83;3.30;;;12.90;99.90;;;;;;5071775;28;20170;-40
2023/03/24 01:13:24;;;;;;;3.53;3.10;;;12.80;99.90;;;;;;5089513;28;20304;-41
2023/03/24 01:15:50;;;;;;;4.97;2.90;;;12.70;99.90;;;;;;5057306;28;20181;-40
2023/03/24 01:18:16;;;;;;;5.67;3.00;;;12.60;99.90;;;;;;5099010;28;20173;-41
2023/03/24 01:20:45;;;;;;;4.67;3.20;;;12.50;99.90;;;;;;5043268;28;20226;-41
2023/03/24 01:23:13;;;;;;;3.40;3.10;;;12.50;99.90;;;;;;5059289;28;20287;-42
2023/03/24 01:25:44;;;;;;;3.30;3.00;;;12.40;99.90;;;;;;5052329;28;20208;-42
2023/03/24 01:28:15;;;;;;;4.07;3.23;;;12.30;99.90;;;;;;5081318;28;20177;-42
2023/03/24 01:30:42;;;;;;;3.83;2.87;;;12.30;99.90;;;;;;5084578;28;20183;-40
2023/03/24 01:33:07;;;;;;;3.63;2.90;;;12.30;99.90;;;;;;5070472;28;20299;-40
2023/03/24 01:35:34;;;;;;;3.23;2.90;;;12.30;99.90;;;;;;5072331;28;20318;-42
2023/03/24 01:38:03;;;;;;;4.33;3.17;;;12.30;99.90;;;;;;5074229;28;20260;-41
2023/03/24 01:40:33;;;;;;;3.27;2.97;;;12.30;99.90;;;;;;5056202;28;20204;-41
2023/03/24 01:43:00;;;;;;;4.03;3.30;;;12.30;99.90;;;;;;5075266;28;20192;-41
2023/03/24 01:45:40;;;;;;;4.60;2.87;;;12.30;99.90;;;;;;5074718;28;20160;-41
2023/03/24 01:48:15;;;;;;;6.57;3.03;;;12.30;99.90;;;;;;5073897;28;20230;-41
2023/03/24 01:50:45;;;;;;;3.47;3.00;;;12.30;99.90;;;;;;5060645;28;20201;-41
2023/03/24 01:53:11;;;;;;;2.90;2.70;;;12.30;99.90;;;;;;5077240;28;20203;-40
2023/03/24 01:55:38;;;;;;;3.13;2.83;;;12.20;99.90;;;;;;5093533;28;20187;-41
2023/03/24 01:58:06;;;;;;;3.27;2.40;;;12.20;99.90;;;;;;5076850;28;20191;-40
2023/03/24 02:00:46;;;;;;;3.60;2.17;;;12.30;99.90;;;;;;5076899;28;20207;-37
2023/03/24 02:03:38;;;;;;;3.03;1.93;;;12.30;99.90;;;;;;5088240;28;20195;-42
2023/03/24 02:06:07;;;;;;;2.60;2.40;;;12.30;99.90;;;;;;5093243;28;20172;-40
2023/03/24 02:08:52;;;;;;;2.67;2.07;;;12.40;99.90;;;;;;5093818;28;20176;-40
2023/03/24 02:11:21;;;;;;;2.50;1.90;;;12.50;99.90;;;;;;5076629;28;20189;-39
2023/03/24 02:13:53;;;;;;;2.13;1.83;;;12.60;99.90;;;;;;5060894;28;20171;-39
2023/03/24 02:16:51;;;;;;;2.07;1.87;;;12.60;99.90;;;;;;5076620;28;20176;-40
2023/03/24 02:19:18;;;;;;;2.27;1.97;;;12.80;99.90;;;;;;5071756;28;20242;-40
2023/03/24 02:21:54;;;;;;;2.40;1.93;;;12.80;99.90;;;;;;5076638;28;20200;-41
2023/03/24 02:24:50;;;;;;;3.40;2.20;;;12.90;99.90;;;;;;5076163;28;20204;-39
2023/03/24 02:27:30;;;;;;;3.17;2.10;;;12.90;99.90;;;;;;5016690;28;20200;-41
2023/03/24 02:30:10;;;;;;;2.63;2.00;;;12.90;99.90;;;;;;5081327;28;20172;-41
2023/03/24 02:33:21;;;;;;;2.80;2.20;;;13.00;99.90;;;;;;5071687;28;20192;-40
2023/03/24 02:35:57;;;;;;;3.60;2.10;;;13.00;99.90;;;;;;5033863;28;20649;-41
2023/03/24 02:38:52;;;;;;;3.30;1.90;;;13.10;99.90;;;;;;5076255;28;20203;-37
2023/03/24 02:41:32;;;;;;;2.13;1.93;;;13.20;99.90;;;;;;5067162;28;20295;-40
2023/03/24 02:44:14;;;;;;;3.40;2.10;;;13.30;99.90;;;;;;5071766;28;20181;-41
2023/03/24 02:46:46;;;;;;;2.70;2.00;;;13.30;99.90;;;;;;5056101;28;20259;-41
2023/03/24 02:49:27;;;;;;;2.47;1.83;;;13.30;99.90;;;;;;5055980;28;20173;-40
2023/03/24 02:52:16;;;;;;;1.90;1.80;;;13.30;99.90;;;;;;5036086;28;20285;-41
2023/03/24 02:54:47;;;;;;;4.57;2.13;;;13.40;99.90;;;;;;5061625;28;20665;-40
2023/03/24 02:57:21;;;;;;;3.63;2.30;;;13.40;99.90;;;;;;5089255;28;20557;-40
2023/03/24 03:00:14;;;;;;;2.23;2.00;;;13.30;99.90;;;;;;5080454;28;20224;-42
2023/03/24 03:03:07;;;;;;;3.23;1.90;;;13.30;99.90;;;;;;5076065;28;20205;-42
2023/03/24 03:05:48;;;;;;;2.80;2.10;;;13.30;99.90;;;;;;5070660;28;20249;-42
2023/03/24 03:08:17;;;;;;;3.90;1.90;;;13.40;99.90;;;;;;5075793;28;20217;-42
2023/03/24 03:10:46;;;;;;;1.97;1.80;;;13.30;99.90;;;;;;5076028;28;20176;-40
2023/03/24 03:13:26;;;;;;;3.00;2.20;;;13.40;99.90;;;;;;5075417;28;20193;-40
2023/03/24 03:15:55;;;;;;;3.77;3.20;;;13.40;99.90;;;;;;5075159;28;20184;-41
2023/03/24 03:18:42;;;;;;;3.23;1.90;;;13.40;99.90;;;;;;5075294;28;20173;-40
2023/03/24 03:21:14;;;;;;;2.03;1.70;;;13.40;99.90;;;;;;5075412;28;20176;-40
2023/03/24 03:23:46;;;;;;;2.23;2.03;;;13.40;99.90;;;;;;5075185;28;20206;-41
2023/03/24 03:26:16;;;;;;;3.23;2.30;;;13.40;99.90;;;;;;5075409;28;20192;-41
2023/03/24 03:28:48;;;;;;;2.63;2.30;;;13.40;99.90;;;;;;5069432;28;20182;-40
2023/03/24 03:31:20;;;;;;;4.07;2.17;;;13.50;99.90;;;;;;5068524;28;20275;-40
2023/03/24 03:33:55;;;;;;;2.37;2.13;;;13.50;99.90;;;;;;5066140;28;20212;-43
2023/03/24 03:36:29;;;;;;;2.83;2.37;;;13.50;99.90;;;;;;5070411;28;20169;-40
2023/03/24 03:39:07;;;;;;;4.83;2.50;;;13.50;99.90;;;;;;5075028;28;20200;-42
2023/03/24 03:41:33;;;;;;;2.43;2.17;;;13.40;99.90;;;;;;5091644;28;20219;-41
2023/03/24 03:44:00;;;;;;;4.23;1.90;;;13.40;99.90;;;;;;5074362;28;20652;-42
2023/03/24 03:46:26;;;;;;;2.17;2.00;;;13.40;99.90;;;;;;5074964;28;20177;-38
2023/03/24 03:48:52;;;;;;;3.10;1.97;;;13.40;99.90;;;;;;5091471;28;20199;-40
2023/03/24 03:51:18;;;;;;;2.47;2.20;;;13.40;99.90;;;;;;5091772;28;20192;-40
2023/03/24 03:53:57;;;;;;;4.17;2.40;;;13.40;99.90;;;;;;5074609;28;20173;-42
2023/03/24 03:56:29;;;;;;;2.73;2.30;;;13.40;99.90;;;;;;5075142;28;20177;-40
2023/03/24 03:59:22;;;;;;;3.30;2.40;;;13.40;99.90;;;;;;5074508;28;20279;-42
2023/03/24 04:01:48;;;;;;;2.70;2.17;;;13.40;99.90;;;;;;5074943;28;20214;-41
2023/03/24 04:05:15;;;;;;;2.93;1.97;;;13.40;99.90;;;;;;5089151;28;20169;-42
2023/03/24 04:08:41;;;;;;;2.30;2.10;;;13.40;99.90;;;;;;5068563;28;20188;-42
2023/03/24 04:11:31;;;;;;;2.17;2.00;;;13.40;99.90;;;;;;5056338;28;20200;-41
2023/03/24 04:14:31;;;;;;;2.40;2.07;;;13.40;99.90;;;;;;5061228;28;20708;-40
2023/03/24 04:17:58;;;;;;;1.97;1.77;;;13.50;99.90;;;;;;5051173;28;20182;-42
2023/03/24 04:21:06;;;;;;;2.40;2.20;;;13.50;99.90;;;;;;5069118;28;20204;-42
2023/03/24 04:23:57;;;;;;;4.30;2.50;;;13.50;99.90;;;;;;5072004;28;20237;-43
2023/03/24 04:26:44;;;;;;;3.97;2.23;;;13.50;99.90;;;;;;5054418;28;20260;-41
2023/03/24 04:29:24;;;;;;;2.83;2.20;;;13.50;99.90;;;;;;5054168;28;20600;-42
2023/03/24 04:32:19;;;;;;;2.30;2.10;;;13.50;99.90;;;;;;5044403;28;20208;-40
2023/03/24 04:34:53;;;;;;;2.77;2.40;;;13.50;99.90;;;;;;5061697;28;20334;-41
2023/03/24 04:37:46;;;;;;;4.47;2.80;;;13.50;99.90;;;;;;5090665;28;20188;-41
2023/03/24 04:40:21;;;;;;;2.57;2.33;;;13.60;99.90;;;;;;5089372;28;20715;-41
2023/03/24 04:42:55;;;;;;;3.13;2.00;;;13.60;99.90;;;;;;5076595;28;20296;-40
2023/03/24 04:45:26;;;;;;;2.13;1.93;;;13.70;99.90;;;;;;5090220;28;20180;-41
2023/03/24 04:48:19;;;;;;;3.97;2.20;;;13.70;99.90;;;;;;5074865;28;20176;-41
2023/03/24 04:51:04;;;;;;;2.47;1.83;;;13.70;99.90;;;;;;5076476;28;20184;-41
2023/03/24 04:54:05;;;;;;;2.40;2.20;;;13.60;99.90;;;;;;5073710;28;20172;-39
2023/03/24 04:56:54;;;;;;;3.23;2.20;;;13.50;99.90;;;;;;5091386;28;20169;-40
2023/03/24 04:59:22;;;;;;;2.50;2.10;;;13.50;99.90;;;;;;5095993;28;20254;-40
2023/03/24 05:01:49;;;;;;;2.20;2.00;;;13.50;99.90;;;;;;5077942;28;20196;-39
2023/03/24 05:04:23;;;;;;;2.90;1.97;;;13.60;99.90;;;;;;5090585;28;20234;-42
2023/03/24 05:06:49;;;;;;;2.43;2.23;;;13.60;99.90;;;;;;5094533;28;20243;-38
2023/03/24 05:09:23;;;;;;;2.83;2.50;;;13.60;99.90;;;;;;5094051;28;20181;-42
2023/03/24 05:11:49;;;;;;;2.80;2.60;;;13.60;99.90;;;;;;5076633;28;20204;-42
2023/03/24 05:14:16;;;;;;;4.30;3.00;;;13.60;99.90;;;;;;5071834;28;20256;-41
2023/03/24 05:16:43;;;;;;;3.57;3.00;;;13.50;99.90;;;;;;5056331;28;20184;-41
2023/03/24 05:19:10;;;;;;;3.10;2.80;;;13.60;99.90;;;;;;5040201;28;20201;-40
2023/03/24 05:21:36;;;;;;;3.70;2.53;;;13.60;99.90;;;;;;5056574;28;20235;-41
2023/03/24 05:24:03;;;;;;;5.10;2.83;;;13.50;99.90;;;;;;5073008;28;20177;-42
2023/03/24 05:26:29;;;;;;;3.83;2.73;;;13.50;99.90;;;;;;5044313;28;20169;-41
2023/03/24 05:29:08;;;;;;;3.53;2.33;;;13.50;99.90;;;;;;5092748;28;20226;-42
2023/03/24 05:31:34;;;;;;;4.63;2.90;;;13.40;99.90;;;;;;5077248;28;20196;-42
2023/03/24 05:34:08;;;;;;;5.00;2.80;;;13.30;99.90;;;;;;5089405;28;20286;-42
2023/03/24 05:36:46;;;;;;;5.87;3.27;;;13.30;99.90;;;;;;5087975;28;20211;-42
2023/03/24 05:39:14;;;;;;;3.27;2.67;;;13.20;99.90;;;;;;5077369;28;20694;-42
2023/03/24 05:41:51;;;;;;;3.17;2.50;;;13.10;99.90;;;;;;5093832;28;20745;-42
2023/03/24 05:44:16;;;;;;;3.30;2.90;;;13.10;99.90;;;;;;5060177;28;20192;-40
2023/03/24 05:46:56;;;;;;;3.63;2.93;;;13.00;99.90;;;;;;5077257;28;20172;-41
2023/03/24 05:49:22;;;;;;;3.57;2.90;;;13.00;99.90;;;;;;5056954;28;20174;-41
2023/03/24 05:51:48;;;;;;;4.00;2.50;;;12.90;99.90;;;;;;5056931;28;20201;-41
2023/03/24 05:54:14;;;;;;;3.17;2.87;;;12.90;99.90;;;;;;5056340;28;20263;-43
2023/03/24 05:56:42;;;;;;;3.40;2.47;;;12.80;99.90;;;;;;5057255;28;20176;-42
2023/03/24 05:59:21;;;;;;;5.23;2.60;;;12.90;99.90;;;;;;5060612;28;20233;-42
2023/03/24 06:02:07;;;;;;;2.50;2.30;;;12.80;99.90;;;;;;5076285;28;20203;-42
2023/03/24 06:04:52;;;;;;;3.93;2.60;;;12.80;99.90;;;;;;5098095;28;20188;-42
2023/03/24 06:07:25;;;;;;;3.70;2.60;;;12.80;99.90;;;;;;5073557;28;20264;-43
2023/03/24 06:09:51;;;;;;;5.20;3.20;;;12.80;99.90;;;;;;5079801;28;20207;-40
2023/03/24 06:12:20;;;;;;;2.77;2.57;;;12.80;99.90;;;;;;5076745;28;20218;-42
2023/03/24 06:14:54;;;;;;;3.87;2.80;;;12.80;99.90;;;;;;5075238;28;20205;-42
2023/03/24 06:17:21;;;;;;;3.50;2.93;;;12.80;99.90;;;;;;5093252;28;20176;-40
2023/03/24 06:19:50;;;;;;;3.40;2.80;;;12.80;99.90;;;;;;5060044;28;20200;-42
2023/03/24 06:22:29;;;;;;;3.33;3.03;;;12.80;99.90;;;;;;5076150;28;20191;-41
2023/03/24 06:24:55;;;;;;;4.03;3.17;;;12.80;99.90;;;;;;5094246;28;20211;-42
2023/03/24 06:27:24;;;;;;;3.60;3.00;;;12.80;99.90;;;;;;5092728;28;20195;-43
2023/03/24 06:29:52;;;;;;;5.83;3.30;;;12.80;99.90;;;;;;5075345;28;20180;-44
2023/03/24 06:32:21;;;;;;;3.80;2.93;;;12.80;99.90;;;;;;5092890;28;20204;-45
2023/03/24 06:34:46;;;;;;;5.23;3.67;;;12.80;99.90;;;;;;5066983;28;20173;-45
2023/03/24 06:37:26;;;;;;;3.87;3.30;;;12.80;99.90;;;;;;5065551;28;20179;-45
2023/03/24 06:39:53;;;;;;;4.00;3.60;;;12.80;99.90;;;;;;5056414;28;20200;-45
2023/03/24 06:42:22;;;;;;;4.23;3.70;;;12.80;99.90;;;;;;5056403;28;20221;-45
2023/03/24 06:44:50;;;;;;;7.90;5.53;;;12.80;99.90;;;;;;5056635;28;20227;-45
2023/03/24 06:47:16;;;;;;;6.00;4.70;;;12.90;99.90;;;;;;5072445;28;20215;-44
2023/03/24 06:49:42;;;;;;;5.03;4.43;;;12.90;99.90;;;;;;5069478;28;20207;-46
2023/03/24 06:52:08;;;;;;;5.60;4.20;;;12.90;99.90;;;;;;5092316;28;20215;-46
2023/03/24 06:54:38;;;;;;;8.10;4.67;;;12.90;99.90;;;;;;5076242;28;20188;-46
2023/03/24 06:57:04;;;;;;;4.37;3.10;;;12.90;99.90;;;;;;5076809;28;20215;-46
2023/03/24 06:59:50;;;;;;;4.33;3.30;;;12.90;99.90;;;;;;5079110;28;20243;-46
2023/03/24 07:02:16;;;;;;;7.13;4.50;;;12.80;99.90;;;;;;5076481;28;20217;-44
2023/03/24 07:04:44;;;;;;;4.40;2.90;;;12.80;99.90;;;;;;5070606;28;20638;-44
2023/03/24 07:07:34;;;;;;;6.33;4.43;;;12.80;99.90;;;;;;5075845;28;20172;-45
2023/03/24 07:10:20;;;;;;;4.30;3.70;;;12.80;99.90;;;;;;5079635;28;20234;-42
2023/03/24 07:12:47;;;;;;;4.27;3.07;;;12.70;99.90;;;;;;5074773;28;20204;-42
2023/03/24 07:15:13;;;;;;;6.97;4.50;;;12.70;99.90;;;;;;5074238;28;20267;-45
2023/03/24 07:17:41;;;;;;;5.80;3.80;;;12.70;99.90;;;;;;5073908;28;20184;-46
2023/03/24 07:20:28;;;;;;;5.77;4.00;;;12.70;99.90;;;;;;5091119;28;20199;-45
2023/03/24 07:23:07;;;;;;;4.57;3.40;;;12.70;99.90;;;;;;5083869;28;20192;-45
2023/03/24 07:25:47;;;;;;;4.93;3.87;;;12.60;99.90;;;;;;5049387;28;20175;-44
2023/03/24 07:28:33;;;;;;;4.17;3.60;;;12.60;99.90;;;;;;5088878;28;20187;-44
2023/03/24 07:31:02;;;;;;;4.57;3.60;;;12.60;99.90;;;;;;5091571;28;20219;-43
2023/03/24 07:33:29;;;;;;;7.37;4.20;;;12.60;99.90;;;;;;5070962;28;20203;-43
2023/03/24 07:35:56;;;;;;;5.63;5.03;;;12.50;99.90;;;;;;5055650;28;20188;-45
2023/03/24 07:38:23;;;;;;;9.47;5.60;;;12.50;99.90;;;;;;5073117;28;20184;-44
2023/03/24 07:40:56;;;;;;;7.47;5.60;;;12.50;99.90;;;;;;5085085;28;20281;-46
2023/03/24 07:43:23;;;;;;;9.03;5.90;;;12.60;99.90;;;;;;5077121;28;20187;-42
2023/03/24 07:46:00;;;;;;;7.07;4.67;;;12.60;99.90;;;;;;5056633;28;20179;-44
2023/03/24 07:48:27;;;;;;;4.93;4.50;;;12.60;99.90;;;;;;5089465;28;20176;-43
2023/03/24 07:50:53;;;;;;;5.07;3.67;;;12.60;99.90;;;;;;5057472;28;20181;-44
2023/03/24 07:53:38;;;;;;;4.30;3.90;;;12.60;99.90;;;;;;5071341;28;20188;-44
2023/03/24 07:56:04;;;;;;;5.13;3.97;;;12.60;99.90;;;;;;5053385;28;20282;-44
2023/03/24 07:58:31;;;;;;;5.83;3.93;;;12.60;99.90;;;;;;5053367;28;20181;-40
2023/03/24 08:01:09;;;;;;;4.13;3.60;;;12.60;99.90;;;;;;5053242;28;20212;-45
2023/03/24 08:03:40;;;;;;;4.87;4.13;;;12.60;99.90;;;;;;5042064;28;20275;-44
2023/03/24 08:06:28;;;;;;;5.37;4.20;;;12.60;99.90;;;;;;5061613;28;20179;-45
2023/03/24 08:08:55;;;;;;;5.83;4.27;;;12.60;99.90;;;;;;5086533;28;20176;-45
2023/03/24 08:11:21;;;;;;;4.50;3.73;;;12.60;99.90;;;;;;5089034;28;20286;-46
2023/03/24 08:13:47;;;;;;;4.63;3.80;;;12.70;99.90;;;;;;5073257;28;20176;-45
2023/03/24 08:16:13;;;;;;;6.50;4.17;;;12.70;99.90;;;;;;5072549;28;20168;-46
2023/03/24 08:18:38;;;;;;;4.50;4.10;;;12.70;99.90;;;;;;5083540;28;20184;-46
2023/03/24 08:21:05;;;;;;;5.67;4.07;;;12.70;99.90;;;;;;5069797;28;20262;-44
2023/03/24 08:23:31;;;;;;;5.40;3.70;;;12.70;99.90;;;;;;5072154;28;20183;-45
2023/03/24 08:25:57;;;;;;;5.20;4.03;;;12.60;99.90;;;;;;5070694;28;20188;-46
2023/03/24 08:28:23;;;;;;;5.23;4.30;;;12.60;99.90;;;;;;5072318;28;20169;-45
2023/03/24 08:30:48;;;;;;;6.03;4.67;;;12.60;99.90;;;;;;5053002;28;20249;-45
2023/03/24 08:33:15;;;;;;;7.70;4.40;;;12.60;99.90;;;;;;5074249;28;20200;-45
2023/03/24 08:35:44;;;;;;;7.43;5.50;;;12.60;99.90;;;;;;5090466;28;20184;-44
2023/03/24 08:38:10;;;;;;;6.60;4.50;;;12.60;99.90;;;;;;5090449;28;20183;-44
2023/03/24 08:40:38;;;;;;;7.67;4.57;;;12.60;99.90;;;;;;5089238;28;20207;-42
2023/03/24 08:43:09;;;;;;;6.07;4.70;;;12.60;99.90;;;;;;5064872;28;20191;-43
2023/03/24 08:45:35;;;;;;;6.37;4.50;;;12.60;99.90;;;;;;5090145;28;20172;-44
2023/03/24 08:48:04;;;;;;;5.73;4.30;;;12.60;99.90;;;;;;5068923;28;20183;-44
2023/03/24 08:50:34;;;;;;;5.00;4.30;;;12.60;99.90;;;;;;5088764;28;20264;-44
2023/03/24 08:53:01;;;;;;;5.20;4.67;;;12.70;99.90;;;;;;5073148;28;20262;-45
2023/03/24 08:55:27;;;;;;;6.23;4.30;;;12.70;99.90;;;;;;5082174;28;20221;-43
2023/03/24 08:57:53;;;;;;;5.80;3.80;;;12.70;99.90;;;;;;5078686;28;20185;-43
2023/03/24 09:00:20;;;;;;;4.43;3.70;;;12.80;99.90;;;;;;5087363;28;20192;-44
2023/03/24 09:02:51;;;;;;;4.40;4.00;;;12.80;99.90;;;;;;5094508;28;20203;-43
2023/03/24 09:05:20;;;;;;;6.23;4.50;;;12.80;99.90;;;;;;5069526;28;20258;-43
2023/03/24 09:07:48;;;;;;;7.47;4.53;;;12.90;99.90;;;;;;5066190;28;20187;-45
2023/03/24 09:10:15;;;;;;;7.90;5.67;;;13.00;99.90;;;;;;5055302;28;20188;-45
2023/03/24 09:12:44;;;;;;;7.70;5.40;;;13.10;99.90;;;;;;5073238;28;20196;-45
2023/03/24 09:15:12;;;;;;;5.03;4.13;;;13.10;99.90;;;;;;5067971;28;20181;-46
2023/03/24 09:17:39;;;;;;;4.90;4.27;;;13.20;99.90;;;;;;5075052;28;20177;-45
2023/03/24 09:20:10;;;;;;;5.63;4.00;;;13.30;99.90;;;;;;5089094;28;20274;-44
2023/03/24 09:22:37;;;;;;;4.77;3.70;;;13.40;99.90;;;;;;5063073;28;20201;-44
2023/03/24 09:25:06;;;;;;;3.87;3.43;;;13.50;99.90;;;;;;5087664;28;20187;-44
2023/03/24 09:27:32;;;;;;;4.57;3.80;;;13.60;99.90;;;;;;5072188;28;20641;-44
2023/03/24 09:29:58;;;;;;;3.90;3.07;;;13.60;99.90;;;;;;5072372;28;20267;-43
2023/03/24 09:32:24;;;;;;;3.87;3.47;;;13.70;99.90;;;;;;5071432;28;20207;-43
2023/03/24 09:34:50;;;;;;;3.40;3.00;;;13.80;99.90;;;;;;5093962;28;20185;-42
2023/03/24 09:37:18;;;;;;;4.33;3.00;;;13.90;99.90;;;;;;5068622;28;20217;-43
2023/03/24 09:39:45;;;;;;;3.20;2.90;;;14.00;99.90;;;;;;5090135;28;20293;-43
2023/03/24 09:42:21;;;;;;;4.33;2.80;;;14.20;99.90;;;;;;5079738;28;20186;-43
2023/03/24 09:44:54;;;;;;;2.50;2.30;;;14.30;99.90;;;;;;5098963;28;20188;-44
2023/03/24 09:47:26;;;;;;;3.10;2.53;;;14.50;99.90;;;;;;5079536;28;20226;-43
2023/03/24 09:49:54;;;;;;;3.87;2.30;;;14.60;99.90;;;;;;5089471;28;20177;-44
2023/03/24 09:52:31;;;;;;;2.10;1.80;;;14.80;99.90;;;;;;5087451;28;20204;-42
2023/03/24 09:55:01;;;;;;;2.70;2.10;;;14.90;99.90;;;;;;5050874;28;20181;-45
2023/03/24 09:57:36;;;;;;;3.63;1.80;;;15.00;99.90;;;;;;5092370;28;20173;-45
2023/03/24 10:00:25;;;;;;;2.63;1.60;;;15.10;99.90;;;;;;5077849;28;20247;-45
2023/03/24 10:02:53;;;;;;;2.20;2.00;;;15.20;99.90;;;;;;5090788;28;20188;-44
2023/03/24 10:05:33;;;;;;;1.70;1.60;;;15.40;99.90;;;;;;5086336;28;20187;-44
2023/03/24 10:08:20;;;;;;;2.53;1.80;;;15.40;99.90;;;;;;5081060;28;20177;-44
2023/03/24 10:11:05;;;;;;;3.03;1.70;;;15.40;99.90;;;;;;5090816;28;20192;-45
2023/03/24 10:13:43;;;;;;;2.23;1.80;;;15.50;99.90;;;;;;5093094;28;20177;-44
2023/03/24 10:16:15;;;;;;;1.50;1.40;;;15.60;99.90;;;;;;5055162;28;20192;-43
2023/03/24 10:19:22;;;;;;;1.50;1.40;;;15.60;99.90;;;;;;5072335;28;20181;-42
2023/03/24 10:22:12;;;;;;;2.07;1.30;;;15.60;99.90;;;;;;5082763;28;20256;-43
2023/03/24 10:24:53;;;;;;;1.67;1.30;;;15.50;99.90;;;;;;5072930;28;20177;-44
2023/03/24 10:27:40;;;;;;;1.70;1.60;;;15.50;99.90;;;;;;5054965;28;20177;-44
2023/03/24 10:30:18;;;;;;;1.30;1.20;;;15.50;99.90;;;;;;5071943;28;20180;-43
2023/03/24 10:32:45;;;;;;;1.40;1.30;;;15.60;99.90;;;;;;5038243;28;20631;-44
2023/03/24 10:35:44;;;;;;;1.83;1.40;;;15.60;99.90;;;;;;5073544;28;20181;-44
2023/03/24 10:38:19;;;;;;;1.40;1.10;;;15.60;99.90;;;;;;5078468;28;20180;-43
2023/03/24 10:40:46;;;;;;;1.80;1.23;;;15.70;99.90;;;;;;5074878;28;20264;-41
2023/03/24 10:43:16;;;;;;;1.30;1.20;;;15.70;99.90;;;;;;5092993;28;20215;-42
2023/03/24 10:45:47;;;;;;;2.87;1.10;;;15.60;99.90;;;;;;5074987;28;20173;-44
2023/03/24 10:48:31;;;;;;;0.90;0.90;;;15.50;99.90;;;;;;5092722;28;20283;-43
2023/03/24 10:50:58;;;;;;;2.87;1.20;;;15.40;99.90;;;;;;5066200;28;20213;-42
2023/03/24 10:53:26;;;;;;;1.13;0.90;;;15.40;99.90;;;;;;5071251;28;20196;-44
2023/03/24 10:55:52;;;;;;;1.07;0.80;;;15.40;99.90;;;;;;5071640;28;20262;-43
2023/03/24 10:58:39;;;;;;;1.53;1.10;;;15.40;99.90;;;;;;5089712;28;20206;-43
2023/03/24 11:01:29;;;;;;;1.27;1.00;;;15.30;99.90;;;;;;5094938;28;20292;-43
2023/03/24 11:04:06;;;;;;;1.10;0.90;;;15.20;99.90;;;;;;5085947;28;20176;-44
2023/03/24 11:06:32;;;;;;;1.30;1.03;;;15.20;99.90;;;;;;5056676;28;20185;-43
2023/03/24 11:09:21;;;;;;;1.20;1.10;;;15.30;99.90;;;;;;5074278;28;20184;-44
2023/03/24 11:11:49;;;;;;;1.77;0.97;;;15.30;99.90;;;;;;5074368;28;20201;-44
2023/03/24 11:14:42;;;;;;;1.10;1.00;;;15.40;99.90;;;;;;5092281;28;20196;-43
2023/03/24 11:17:14;;;;;;;0.80;0.80;;;15.30;99.90;;;;;;5091262;28;20172;-44
2023/03/24 11:19:53;;;;;;;1.10;1.00;;;15.40;99.90;;;;;;5092125;28;20239;-44
2023/03/24 11:22:19;;;;;;;2.53;0.80;;;15.50;99.90;;;;;;5090803;28;20192;-45
2023/03/24 11:24:49;;;;;;;0.77;0.77;;;15.30;99.90;;;;;;5092103;28;20172;-44
2023/03/24 11:27:17;;;;;;;1.17;0.57;;;15.40;99.90;;;;;;5091295;28;20200;-43
2023/03/24 11:29:48;;;;;;;0.93;0.90;;;15.40;99.90;;;;;;5074420;28;20176;-44
2023/03/24 11:32:25;;;;;;;1.00;0.90;;;15.30;99.90;;;;;;5056937;28;20193;-43
2023/03/24 11:35:01;;;;;;;0.60;0.60;;;15.40;99.90;;;;;;5076399;28;20223;-41
2023/03/24 11:37:32;;;;;;;0.80;0.80;;;15.40;99.90;;;;;;5084074;28;20181;-40
2023/03/24 11:40:16;;;;;;;2.27;0.90;;;15.50;99.90;;;;;;5073897;28;20215;-41
2023/03/24 11:42:52;;;;;;;1.27;0.73;;;15.50;99.90;;;;;;5092289;28;20201;-43
2023/03/24 11:45:35;;;;;;;0.70;0.70;;;15.40;99.90;;;;;;5073314;28;20172;-43
2023/03/24 11:48:10;;;;;;;2.90;0.80;;;15.30;99.90;;;;;;5073757;28;20172;-43
2023/03/24 11:50:38;;;;;;;0.90;0.90;;;15.30;99.90;;;;;;5073501;28;20179;-42
2023/03/24 11:53:23;;;;;;;1.03;0.90;;;15.20;99.90;;;;;;5073658;28;20212;-41
2023/03/24 11:55:58;;;;;;;1.23;0.80;;;15.20;99.90;;;;;;5056653;28;20181;-43
2023/03/24 11:58:39;;;;;;;0.93;0.90;;;15.20;99.90;;;;;;5090618;28;20183;-42
2023/03/24 12:01:19;;;;;;;1.63;0.90;;;15.10;99.90;;;;;;5056860;28;20210;-43
2023/03/24 12:04:07;;;;;;;0.70;0.70;;;15.10;99.90;;;;;;5072964;28;20172;-43
2023/03/24 12:07:01;;;;;;;0.87;0.80;;;15.20;99.90;;;;;;5081685;28;20212;-43
2023/03/24 12:09:51;;;;;;;1.07;0.80;;;15.20;99.90;;;;;;5073242;28;20185;-43
2023/03/24 12:12:20;;;;;;;0.70;0.70;;;15.30;99.90;;;;;;5073501;28;20205;-43
2023/03/24 12:15:16;;;;;;;0.80;0.80;;;15.30;99.90;;;;;;5056406;28;20176;-41
2023/03/24 12:18:00;;;;;;;0.97;0.47;;;15.40;99.90;;;;;;5073459;28;20200;-41
2023/03/24 12:21:03;;;;;;;0.60;0.60;;;15.40;99.90;;;;;;5091039;28;20212;-43
2023/03/24 12:23:57;;;;;;;0.80;0.80;;;15.30;99.90;;;;;;5039264;28;20242;-43
2023/03/24 12:26:27;;;;;;;0.50;0.50;;;15.20;99.90;;;;;;5091004;28;20177;-42
2023/03/24 12:29:16;;;;;;;0.60;0.60;;;15.20;99.90;;;;;;5073231;28;20180;-42
2023/03/24 12:32:01;;;;;;;0.57;0.50;;;15.30;99.90;;;;;;5076507;28;20617;-42
2023/03/24 12:34:54;;;;;;;1.07;0.50;;;15.20;99.90;;;;;;5085168;28;20181;-43
2023/03/24 12:37:23;;;;;;;0.50;0.50;;;15.30;99.90;;;;;;5089878;28;20180;-42
2023/03/24 12:40:00;;;;;;;0.50;0.50;;;15.70;99.90;;;;;;5068952;28;20223;-43
2023/03/24 12:42:33;;;;;;;0.87;0.60;;;16.00;99.90;;;;;;5070882;28;20193;-43
2023/03/24 12:45:17;;;;;;;0.40;0.40;;;16.00;99.90;;;;;;5053787;28;20186;-41
2023/03/24 12:48:09;;;;;;;0.50;0.50;;;16.00;99.90;;;;;;5052986;28;20173;-43
2023/03/24 12:51:00;;;;;;;0.40;0.40;;;15.80;99.90;;;;;;5070742;28;20598;-43
2023/03/24 12:53:57;;;;;;;0.50;0.50;;;15.70;99.90;;;;;;5038962;28;20253;-40
2023/03/24 12:56:31;;;;;;;0.77;0.50;;;15.60;99.90;;;;;;5091032;28;20248;-43
2023/03/24 12:59:11;;;;;;;1.03;0.40;;;15.50;99.90;;;;;;5064696;28;20187;-43
2023/03/24 13:01:54;;;;;;;0.50;0.50;;;15.40;99.90;;;;;;5070979;28;20213;-42
2023/03/24 13:04:32;;;;;;;0.40;0.40;;;15.30;99.90;;;;;;5072813;28;20181;-43
2023/03/24 13:07:15;;;;;;;0.40;0.40;;;15.20;99.90;;;;;;5084188;28;20184;-44
2023/03/24 13:10:00;;;;;;;1.17;0.50;;;15.20;99.90;;;;;;5075880;28;20224;-44
2023/03/24 13:12:38;;;;;;;0.70;0.50;;;15.20;99.90;;;;;;5070934;28;20210;-41
2023/03/24 13:15:16;;;;;;;0.70;0.70;;;15.20;99.90;;;;;;5068860;28;20216;-41
2023/03/24 13:17:51;;;;;;;1.30;0.50;;;15.20;99.90;;;;;;5052842;28;20234;-43
2023/03/24 13:20:28;;;;;;;0.40;0.40;;;15.10;99.90;;;;;;5059235;28;20196;-43
2023/03/24 13:22:55;;;;;;;0.87;0.50;;;15.00;99.90;;;;;;5076125;28;20290;-42
2023/03/24 13:25:41;;;;;;;0.63;0.53;;;15.00;99.90;;;;;;5093666;28;20218;-43
2023/03/24 13:28:21;;;;;;;0.97;0.70;;;14.90;99.90;;;;;;5095203;28;20176;-42